SHGR weather

Edificio Corpgroup Heliport
Las Condes, Santiago Metropolitan Region, Chile

Public forecast

Using degrees Celsius for public forecast. Weather courtesy of forecast.io.

METAR (pilot weather report)

Closest report is Eulogio Sánchez Airport, 3.4 nm (6.3 km) SSE. Retrieved 2019/07/23 17:00 UTC (9 minutes ago):

SCTB 231700Z 28003KT CAVOK 10/M01 Q1022

TAF (pilot weather forecast)

Closest forecast is Comodoro Arturo Merino Benítez International Airport, 10.7 nm (19.8 km) W. Retrieved 2019/07/23 12:00 UTC (5 hours ago):

TAF SCEL 231043Z 2312/2412 18004KT 5000 BR NSC TX15/2319Z TNM01/2411Z TEMPO 2312/2314 VRB02KT 0800 BCFG BECMG 2316/2318 16006KT 8000 NSW TEMPO 2319/2323 CAVOK BECMG 2400/2402 16004KT BECMG 2404/2406 5000 BR TEMPO 2406/2412 0700 BCFG